Pollock, ID

10:37 PM PDT on October 20, 2014 (GMT -0700)
Idaho Cnty AP, Grangeville, I | Change Station
CLOSE
Current Station
Airport
Location: Idaho Cnty AP, Grangeville, I,
Elevation: 3314 ft
Nearby Weather Stations

Elev 3314 ft 45.94 °N, 116.12 °W | Updated 22 minutes ago

Partly Cloudy
Partly Cloudy
52 °F
Feels Like 52 °F
N
12
Wind Variable Wind from NNE
Gusts 17 mph

Today
High -- | Low -- °F
--% Chance of Precip.
Yesterday
High -- | Low -- °F
Precip. -- in
7:08 AM 5:51 PM
Waning Crescent, 7% visible
Pressure 29.88 in
Visibility 10.0 miles
Clouds Mostly Cloudy 1800 ft
Overcast 3700 ft
Dew Point 44 °F
Humidity 72%
Rainfall 0.00 in
Snow Depth 1 in , 0 in
UV 0 out of 12
Pollen 3.10 out of 12
PM2.5 Unhealthy for Sensitive Groups
Flu Activity Sporadic
METAR KGIC 210515Z AUTO 02010G15KT 10SM BKN018 OVC037 11/07 A2988 RMK AO1 T01130065

More Conditions Fewer Conditions

Pressure 29.88 in
Visibility 10.0 miles
Clouds Mostly Cloudy 1800 ft
Overcast 3700 ft
Dew Point 44 °F
Humidity 72%
Rainfall 0.00 in
Snow Depth 1 in , 0 in
UV 0 out of 12
Pollen 3.10 out of 12
PM2.5 Unhealthy for Sensitive Groups
Flu Activity Sporadic
METAR KGIC 210515Z AUTO 02010G15KT 10SM BKN018 OVC037 11/07 A2988 RMK AO1 T01130065

More Conditions Fewer Conditions

10-Day Weather Forecast

Almanac

Astronomy

Oct. 20, 2014 Rise Set
Actual Time 7:08 AM PDT 5:51 PM PDT
Civil Twilight 6:38 AM PDT 6:21 PM PDT
Nautical Twilight 6:03 AM PDT 6:55 PM PDT
Astronomical Twilight 5:29 AM PDT 7:29 PM PDT
Moon 3:52 AM PDT (10/20) 4:23 PM PDT (10/20)
Length of Visible Light 11h 43m
Length of Day
10h 43m
Tomorrow will be 3m 0s shorter.
Waning Crescent, 7% of the Moon is Illuminated
Oct 21
Waning Crescent
Oct 23
New
Oct 30
First Quarter
Nov 6
Full
Nov 14
Last Quarter

Yesterday's Extremes

State Highs State Lows

Community

WunderPhotos

Upload Photos

1,763,612 photos uploaded!

Nearby

Air Quality

  Air Quality AQ Index Pollutant
Yesterday Good
PM2.5
Current Unhealthy for Sensitive Groups
PM2.5
Monday Good
PM2.5
Tuesday Good
PM2.5
Wednesday Good
PM2.5

Snow Depth

Station Depth Elevation
Brundage Reservoir 1 in 6300 ft
Secesh Summit 0 in 6520 ft
Bear Basin 0 in 5350 ft
Squaw Flat 1 in 6240 ft
Big Creek Summit 0 in 6580 ft

Earthquake Activity

City Distance Mag. Time & Date
No recent earthquake activity has been reported nearby.
Minimum magnitude displayed is 2.5.

Coastal Water Temperatures

Place Temperature
No Stations Reporting

Nearby Weather Stations